Time;durP1;ratioP1;P1;durP2;ratioP2;P2;SDS_P1;SDS_P2;PMS_P1;PMS_P2;Temp;Humidity;BMP_temperature;BMP_pressure;BME280_temperature;BME280_humidity;BME280_pressure;Samples;Min_cycle;Max_cycle;Signal;HPM_P1;HPM_P2
2022/05/07 00:02:02;;;;;;;24.00;15.48;;;;;;;11.73;67.45;99079.75;5049198;28;20025;-80
2022/05/07 00:04:28;;;;;;;22.77;15.32;;;;;;;11.68;67.20;99083.38;5047802;28;20020;-80
2022/05/07 00:06:53;;;;;;;26.13;16.13;;;;;;;11.67;67.47;99078.16;5049342;28;20393;-79
2022/05/07 00:09:19;;;;;;;26.73;16.15;;;;;;;11.66;67.53;99080.13;5048201;28;20086;-79
2022/05/07 00:11:47;;;;;;;25.65;17.08;;;;;;;11.61;67.42;99078.22;5048300;28;20513;-80
2022/05/07 00:14:13;;;;;;;27.38;17.10;;;;;;;11.62;67.61;99082.59;5045291;28;20031;-79
2022/05/07 00:19:22;;;;;;;24.98;16.15;;;;;;;11.63;67.80;99077.94;5048041;28;20440;-79
2022/05/07 00:21:48;;;;;;;26.42;16.63;;;;;;;11.66;68.19;99077.38;5046790;28;20024;-79
2022/05/07 00:24:13;;;;;;;23.30;16.60;;;;;;;11.67;67.74;99072.69;5047736;28;20017;-79
2022/05/07 00:26:39;;;;;;;23.95;15.88;;;;;;;11.69;67.86;99073.22;5048127;28;20465;-80
2022/05/07 00:29:04;;;;;;;24.27;16.33;;;;;;;11.70;67.28;99069.34;5048310;28;20027;-79
2022/05/07 00:31:30;;;;;;;24.70;15.57;;;;;;;11.72;67.81;99080.88;5046628;28;20492;-77
2022/05/07 00:33:55;;;;;;;22.98;15.32;;;;;;;11.73;67.62;99072.34;5047263;28;20086;-79
2022/05/07 00:36:21;;;;;;;24.75;15.55;;;;;;;11.77;67.66;99080.84;5047787;28;20044;-79
2022/05/07 00:38:46;;;;;;;21.10;15.15;;;;;;;11.79;67.78;99072.31;5046843;28;20036;-77
2022/05/07 00:41:12;;;;;;;24.50;17.35;;;;;;;11.81;68.02;99081.09;5047339;28;20032;-78
2022/05/07 00:43:39;;;;;;;21.13;15.15;;;;;;;11.82;67.96;99078.03;5046755;28;20053;-79
2022/05/07 00:46:05;;;;;;;18.23;14.45;;;;;;;11.85;67.77;99082.13;5047805;28;20063;-80
2022/05/07 00:48:31;;;;;;;20.98;15.15;;;;;;;11.86;67.56;99073.59;5047976;28;20151;-80
2022/05/07 00:53:42;;;;;;;21.05;15.50;;;;;;;11.93;68.07;99072.44;5049118;28;20108;-84
2022/05/07 00:56:08;;;;;;;20.73;15.90;;;;;;;11.95;67.78;99075.72;5050213;28;20037;-84
2022/05/07 00:58:37;;;;;;;23.13;15.95;;;;;;;11.96;68.05;99075.44;5052967;28;20075;-83
2022/05/07 01:01:02;;;;;;;25.33;16.60;;;;;;;11.98;67.62;99072.41;5049392;28;20036;-80
2022/05/07 01:03:28;;;;;;;23.83;16.30;;;;;;;11.99;68.28;99071.28;5047263;28;20036;-80
2022/05/07 01:05:54;;;;;;;22.30;15.93;;;;;;;12.03;68.09;99069.59;5048746;28;20033;-82
2022/05/07 01:08:20;;;;;;;22.83;15.90;;;;;;;12.05;68.07;99067.38;5048418;28;20040;-81
2022/05/07 01:10:46;;;;;;;24.55;16.30;;;;;;;12.07;67.75;99067.91;5048154;28;20075;-80
2022/05/07 01:13:12;;;;;;;23.65;17.90;;;;;;;12.09;67.86;99068.44;5048244;28;20087;-81
2022/05/07 01:15:48;;;;;;;23.73;16.20;;;;;;;12.11;67.76;99071.72;5050141;28;20070;-81
2022/05/07 01:18:17;;;;;;;26.05;17.55;;;;;;;12.13;68.25;99069.50;5050365;28;20025;-80
2022/05/07 01:20:43;;;;;;;25.90;17.17;;;;;;;12.14;67.96;99071.16;5052014;28;20029;-81
2022/05/07 01:23:09;;;;;;;22.67;16.70;;;;;;;12.14;67.93;99073.91;5049487;28;20052;-81
2022/05/07 01:25:35;;;;;;;24.15;17.40;;;;;;;12.17;68.10;99070.56;5051735;28;20198;-81
2022/05/07 01:28:00;;;;;;;24.60;16.85;;;;;;;12.16;67.92;99065.38;5052598;28;20686;-81
2022/05/07 01:30:26;;;;;;;25.98;18.10;;;;;;;12.15;68.20;99074.72;5050705;28;20032;-81
2022/05/07 01:32:52;;;;;;;25.42;18.38;;;;;;;12.14;68.53;99071.16;5051121;28;20040;-81
2022/05/07 01:35:17;;;;;;;22.90;17.40;;;;;;;12.16;67.86;99074.44;5052723;28;20036;-81
2022/05/07 01:37:43;;;;;;;22.48;16.38;;;;;;;12.17;68.29;99064.25;5054014;28;20051;-82
2022/05/07 01:40:09;;;;;;;20.27;15.63;;;;;;;12.17;68.16;99067.00;5053668;28;20178;-78
2022/05/07 01:42:34;;;;;;;20.00;15.25;;;;;;;12.17;68.13;99056.00;5051721;28;20489;-75
2022/05/07 01:45:01;;;;;;;20.95;14.82;;;;;;;12.18;68.21;99058.44;5051579;28;20024;-79
2022/05/07 01:50:11;;;;;;;19.73;14.55;;;;;;;12.17;68.12;99056.81;5052395;28;20040;-77
2022/05/07 01:52:36;;;;;;;24.00;14.48;;;;;;;12.18;68.12;99057.66;5052402;28;20033;-77
2022/05/07 01:55:03;;;;;;;21.42;14.85;;;;;;;12.17;68.09;99054.06;5051718;28;20024;-77
2022/05/07 01:57:28;;;;;;;20.58;14.68;;;;;;;12.17;68.48;99062.31;5051499;28;20025;-77
2022/05/07 01:59:53;;;;;;;21.20;14.43;;;;;;;12.16;68.77;99057.94;5051035;28;20477;-77
2022/05/07 02:02:19;;;;;;;22.25;14.65;;;;;;;12.19;68.37;99059.28;5050900;28;20040;-77
2022/05/07 02:04:44;;;;;;;23.88;15.00;;;;;;;12.18;68.34;99061.19;5051140;28;20190;-77
2022/05/07 02:07:10;;;;;;;22.55;14.10;;;;;;;12.21;68.23;99057.06;5050480;28;20028;-77
2022/05/07 02:09:36;;;;;;;24.00;15.00;;;;;;;12.20;68.63;99053.47;5050632;28;20025;-77
2022/05/07 02:12:02;;;;;;;22.77;15.35;;;;;;;12.20;68.84;99056.22;5050843;28;20028;-77
2022/05/07 02:14:29;;;;;;;22.70;16.15;;;;;;;12.20;68.81;99055.44;5050293;28;20508;-77
2022/05/07 02:16:54;;;;;;;21.25;15.20;;;;;;;12.20;68.36;99052.69;5050720;28;20040;-77
2022/05/07 02:19:20;;;;;;;21.77;15.18;;;;;;;12.19;68.50;99034.53;5050681;28;20021;-77
2022/05/07 02:21:45;;;;;;;23.45;15.85;;;;;;;12.20;68.41;99056.22;5050957;28;20759;-77
2022/05/07 02:24:11;;;;;;;22.30;15.82;;;;;;;12.19;68.29;99054.59;5050604;28;20039;-77
2022/05/07 02:26:36;;;;;;;20.30;14.68;;;;;;;12.17;68.38;99048.56;5050760;28;20115;-77
2022/05/07 02:29:01;;;;;;;24.92;15.40;;;;;;;12.15;68.78;99047.22;5050265;28;20025;-77
2022/05/07 02:31:27;;;;;;;21.85;14.48;;;;;;;12.13;68.81;99053.00;5050043;28;20139;-77
2022/05/07 02:33:52;;;;;;;20.25;15.05;;;;;;;12.13;68.80;99050.25;5050636;28;20036;-77
2022/05/07 02:36:18;;;;;;;22.88;14.57;;;;;;;12.16;68.97;99054.38;5050633;28;20035;-77
2022/05/07 02:38:44;;;;;;;23.33;16.77;;;;;;;12.16;68.90;99055.19;5048922;28;20036;-78
2022/05/07 02:43:53;;;;;;;23.58;17.25;;;;;;;12.23;68.60;99062.25;5050233;28;20039;-77
2022/05/07 02:46:18;;;;;;;22.70;16.27;;;;;;;12.22;68.73;99058.72;5049859;28;20049;-78
2022/05/07 02:48:45;;;;;;;24.25;17.48;;;;;;;12.23;68.62;99060.31;5050545;28;20025;-77
2022/05/07 02:51:12;;;;;;;22.30;16.02;;;;;;;12.23;68.77;99060.31;5050128;28;20024;-77
2022/05/07 02:53:37;;;;;;;25.50;17.75;;;;;;;12.27;69.04;99063.31;5051978;28;20056;-77
2022/05/07 02:56:03;;;;;;;24.63;18.33;;;;;;;12.30;68.52;99073.75;5052224;28;20039;-77
2022/05/07 02:58:29;;;;;;;23.83;17.42;;;;;;;12.28;68.50;99064.97;5051548;28;20048;-77
2022/05/07 03:00:55;;;;;;;31.05;18.00;;;;;;;12.28;68.72;99070.47;5049702;28;20469;-77
2022/05/07 03:03:21;;;;;;;26.13;18.48;;;;;;;12.31;68.70;99069.88;5050269;28;20020;-76
2022/05/07 03:05:46;;;;;;;28.73;18.63;;;;;;;12.34;68.66;99067.34;5049779;28;20499;-77
2022/05/07 03:08:11;;;;;;;29.33;19.05;;;;;;;12.35;68.75;99076.44;5049490;28;20040;-78
2022/05/07 03:10:37;;;;;;;26.27;18.30;;;;;;;12.35;68.68;99071.72;5049986;28;20100;-77
2022/05/07 03:13:02;;;;;;;26.92;17.42;;;;;;;12.35;68.96;99068.97;5048310;28;20491;-77
2022/05/07 03:15:28;;;;;;;25.40;17.88;;;;;;;12.35;68.91;99068.97;5048525;28;20025;-76
2022/05/07 03:17:53;;;;;;;26.25;18.88;;;;;;;12.35;68.65;99062.69;5048369;28;21470;-77
2022/05/07 03:20:19;;;;;;;28.88;18.40;;;;;;;12.35;68.79;99063.50;5049635;28;20033;-77
2022/05/07 03:22:45;;;;;;;25.85;18.23;;;;;;;12.34;68.96;99058.28;5049943;28;20501;-75
2022/05/07 03:25:11;;;;;;;26.88;18.92;;;;;;;12.33;68.98;99060.22;5049435;28;20045;-78
2022/05/07 03:27:36;;;;;;;28.70;18.73;;;;;;;12.33;68.99;99064.91;5049435;28;20052;-77
2022/05/07 03:30:02;;;;;;;29.20;18.23;;;;;;;12.34;68.98;99061.03;5049653;28;20079;-77
2022/05/07 03:32:27;;;;;;;30.02;18.65;;;;;;;12.35;68.84;99062.69;5049338;28;20767;-77
2022/05/07 03:34:53;;;;;;;27.30;19.10;;;;;;;12.34;69.24;99064.59;5045775;28;20027;-76
2022/05/07 03:37:18;;;;;;;27.20;18.52;;;;;;;12.38;69.32;99050.25;5048596;28;20499;-77
2022/05/07 03:39:44;;;;;;;29.80;18.80;;;;;;;12.38;68.62;99059.34;5048816;28;20035;-77
2022/05/07 03:42:09;;;;;;;28.27;18.25;;;;;;;12.37;68.58;99065.97;5048891;28;20025;-77
2022/05/07 03:44:34;;;;;;;26.67;18.42;;;;;;;12.38;69.07;99069.50;5049716;28;20379;-77
2022/05/07 03:47:00;;;;;;;27.10;18.08;;;;;;;12.36;68.91;99062.38;5048651;28;20049;-77
2022/05/07 03:49:25;;;;;;;29.38;18.75;;;;;;;12.34;68.88;99069.28;5049049;28;20448;-77
2022/05/07 03:54:35;;;;;;;28.27;18.02;;;;;;;12.34;69.03;99061.84;5049532;28;20059;-77
2022/05/07 03:57:00;;;;;;;25.65;17.27;;;;;;;12.35;68.82;99071.72;5048711;28;20029;-77
2022/05/07 03:59:26;;;;;;;27.35;17.63;;;;;;;12.37;68.76;99068.72;5049219;28;20032;-77
2022/05/07 04:01:51;;;;;;;25.63;17.63;;;;;;;12.36;68.82;99078.88;5049828;28;20036;-77
2022/05/07 04:04:17;;;;;;;29.27;18.20;;;;;;;12.38;68.79;99080.50;5049280;28;20028;-77
2022/05/07 04:06:42;;;;;;;28.38;17.65;;;;;;;12.40;68.88;99078.28;5049210;28;20108;-77
2022/05/07 04:09:07;;;;;;;317.67;109.00;;;;;;;12.39;69.03;99088.50;5048843;28;20416;-77
2022/05/07 04:11:33;;;;;;;354.85;120.90;;;;;;;12.39;68.77;99077.50;5048708;28;20037;-77
2022/05/07 04:13:58;;;;;;;266.70;90.72;;;;;;;12.38;69.06;99075.84;5048877;28;20516;-77
2022/05/07 04:16:24;;;;;;;250.05;85.65;;;;;;;12.41;68.73;99079.94;5048974;28;20075;-77
2022/05/07 04:18:49;;;;;;;225.38;79.70;;;;;;;12.43;69.05;99084.00;5049047;28;20401;-77
2022/05/07 04:21:15;;;;;;;143.05;53.13;;;;;;;12.44;68.96;99085.66;5048426;28;20037;-77
2022/05/07 04:23:40;;;;;;;67.55;32.75;;;;;;;12.47;69.31;99096.06;5048710;28;20036;-77
2022/05/07 04:26:05;;;;;;;51.42;26.77;;;;;;;12.50;68.83;99092.75;5048892;28;20031;-77
2022/05/07 04:28:31;;;;;;;45.03;25.65;;;;;;;12.54;69.35;99094.91;5048945;28;20412;-77
2022/05/07 04:30:56;;;;;;;52.42;26.85;;;;;;;12.57;68.89;99091.56;5048188;28;20523;-77
2022/05/07 04:33:23;;;;;;;63.10;30.92;;;;;;;12.59;69.17;99092.94;5046853;28;20037;-77
2022/05/07 04:35:49;;;;;;;39.53;23.33;;;;;;;12.59;68.80;99092.09;5048722;28;20024;-77
2022/05/07 04:38:14;;;;;;;45.58;25.02;;;;;;;12.61;68.81;99092.63;5048870;28;20388;-77
2022/05/07 04:40:40;;;;;;;37.08;22.33;;;;;;;12.64;68.94;99092.84;5048394;28;20025;-77
2022/05/07 04:43:05;;;;;;;32.22;20.48;;;;;;;12.69;69.06;99096.66;5048470;28;20029;-77
2022/05/07 04:45:31;;;;;;;31.70;19.60;;;;;;;12.73;69.17;99100.44;5048349;28;20052;-77
2022/05/07 04:47:56;;;;;;;36.55;20.88;;;;;;;12.77;68.82;99098.75;5048835;28;20017;-77
2022/05/07 04:50:22;;;;;;;41.72;19.65;;;;;;;12.78;69.14;99098.47;5048581;28;20033;-76
2022/05/07 04:52:47;;;;;;;36.22;17.83;;;;;;;12.77;68.75;99099.59;5051181;28;20067;-76
2022/05/07 04:55:14;;;;;;;35.38;19.45;;;;;;;12.75;68.97;99101.81;5052391;28;20032;-77
2022/05/07 04:57:39;;;;;;;27.85;16.17;;;;;;;12.75;68.45;99107.31;5052622;28;20090;-77
2022/05/07 05:00:06;;;;;;;24.70;16.08;;;;;;;12.75;68.29;99099.06;5051983;28;20021;-76
2022/05/07 05:02:31;;;;;;;29.70;17.15;;;;;;;12.78;68.75;99106.72;5052579;28;20064;-76
2022/05/07 05:04:56;;;;;;;28.13;17.83;;;;;;;12.84;68.57;99107.47;5051972;28;20441;-76
2022/05/07 05:07:22;;;;;;;26.10;16.92;;;;;;;12.87;68.55;99106.03;5052202;28;20025;-77
2022/05/07 05:09:47;;;;;;;24.77;16.42;;;;;;;12.93;68.04;99113.13;5051043;28;20035;-77
2022/05/07 05:12:13;;;;;;;26.60;17.58;;;;;;;12.98;68.29;99107.56;5051946;28;20017;-77
2022/05/07 05:17:34;;;;;;;38.40;20.38;;;;;;;13.08;68.18;99110.19;5047317;28;20378;-77
2022/05/07 05:20:04;;;;;;;38.65;19.98;;;;;;;13.12;67.67;99109.59;5048718;28;20086;-77
2022/05/07 05:22:29;;;;;;;29.52;17.52;;;;;;;13.12;67.80;99109.59;5050819;28;20083;-77
2022/05/07 05:24:55;;;;;;;28.00;17.50;;;;;;;13.15;68.04;99120.00;5050619;28;20417;-77
2022/05/07 05:27:20;;;;;;;24.38;15.65;;;;;;;13.19;67.95;99119.09;5052271;28;20106;-78
2022/05/07 05:29:46;;;;;;;27.00;17.58;;;;;;;13.19;68.18;99119.09;5051533;28;20044;-77
2022/05/07 05:32:17;;;;;;;23.88;15.57;;;;;;;13.20;67.87;99117.19;5051869;28;20036;-77
2022/05/07 05:34:52;;;;;;;23.88;17.13;;;;;;;13.18;67.87;99122.97;5051734;28;20025;-77
2022/05/07 05:37:18;;;;;;;25.55;17.58;;;;;;;13.22;67.81;99121.25;5051707;28;20029;-77
2022/05/07 05:39:44;;;;;;;26.10;16.42;;;;;;;13.28;67.89;99123.94;5049600;28;20029;-77
2022/05/07 05:42:09;;;;;;;27.42;16.65;;;;;;;13.28;67.73;99123.94;5051421;28;20151;-77
2022/05/07 05:44:37;;;;;;;29.05;17.90;;;;;;;13.30;67.82;99125.28;5050269;28;20040;-79
2022/05/07 05:47:03;;;;;;;26.05;17.58;;;;;;;13.33;67.80;99124.69;5051251;28;20068;-80
2022/05/07 05:49:29;;;;;;;23.33;16.85;;;;;;;13.33;67.71;99126.63;5051747;28;20021;-80
2022/05/07 05:51:54;;;;;;;24.40;17.17;;;;;;;13.34;67.82;99126.31;5050640;28;20397;-80
2022/05/07 05:54:19;;;;;;;24.63;17.05;;;;;;;13.37;67.55;99130.44;5051171;28;20029;-79
2022/05/07 05:56:45;;;;;;;24.92;17.42;;;;;;;13.38;67.55;99130.13;5051551;28;20104;-79
2022/05/07 05:59:11;;;;;;;27.00;17.48;;;;;;;13.42;67.46;99133.16;5050845;28;20058;-80
2022/05/07 06:01:36;;;;;;;23.58;18.23;;;;;;;13.45;67.50;99132.53;5051831;28;20025;-80
2022/05/07 06:04:02;;;;;;;28.23;18.88;;;;;;;13.45;67.38;99131.72;5050186;28;20044;-81
2022/05/07 06:06:27;;;;;;;25.70;18.23;;;;;;;13.47;67.40;99132.25;5052129;28;20540;-81
2022/05/07 06:08:52;;;;;;;27.08;17.38;;;;;;;13.47;67.42;99135.78;5051130;28;20658;-79
2022/05/07 06:11:19;;;;;;;23.20;18.17;;;;;;;13.44;67.43;99125.41;5047416;28;20134;-80
2022/05/07 06:13:45;;;;;;;26.50;18.27;;;;;;;13.45;67.26;99139.97;5050167;28;20553;-81
2022/05/07 06:16:10;;;;;;;26.60;18.70;;;;;;;13.47;67.62;99140.50;5049156;28;20025;-81
2022/05/07 06:18:36;;;;;;;28.63;18.50;;;;;;;13.45;67.01;99134.47;5051480;28;20063;-81
2022/05/07 06:21:03;;;;;;;26.75;18.05;;;;;;;13.45;67.13;99142.75;5049369;28;20040;-81
2022/05/07 06:23:29;;;;;;;27.58;18.77;;;;;;;13.45;66.98;99137.22;5051083;28;20062;-81
2022/05/07 06:28:38;;;;;;;24.65;16.95;;;;;;;13.44;66.54;99144.69;5049795;28;20452;-81
2022/05/07 06:31:03;;;;;;;25.20;17.38;;;;;;;13.40;66.50;99149.94;5051118;28;20080;-81
2022/05/07 06:33:29;;;;;;;25.67;17.40;;;;;;;13.40;66.56;99146.38;5051223;28;20029;-82
2022/05/07 06:35:54;;;;;;;26.73;17.23;;;;;;;13.37;66.64;99150.53;5054301;28;20473;-82
2022/05/07 06:38:20;;;;;;;24.10;17.05;;;;;;;13.42;66.42;99154.34;5053216;28;20477;-81
2022/05/07 06:40:49;;;;;;;29.13;17.42;;;;;;;13.42;66.27;99152.44;5050441;28;20020;-81
2022/05/07 06:43:14;;;;;;;24.42;15.88;;;;;;;13.44;66.14;99157.63;5051085;28;20029;-81
2022/05/07 06:45:40;;;;;;;24.02;17.13;;;;;;;13.45;66.24;99146.31;5049699;28;20049;-80
2022/05/07 06:48:08;;;;;;;23.25;17.02;;;;;;;13.47;66.11;99155.09;5052435;28;20025;-81
2022/05/07 06:50:34;;;;;;;25.52;17.38;;;;;;;13.50;66.15;99151.75;5050215;28;20031;-80
2022/05/07 06:53:00;;;;;;;23.85;16.00;;;;;;;13.55;66.15;99153.63;5055034;28;20033;-80
2022/05/07 06:55:25;;;;;;;22.77;16.77;;;;;;;13.60;66.20;99156.28;5052910;28;20465;-79
2022/05/07 06:57:53;;;;;;;23.83;16.80;;;;;;;13.65;66.01;99147.13;5049502;28;20021;-80
2022/05/07 07:00:18;;;;;;;23.20;16.17;;;;;;;13.74;65.97;99150.84;5051917;28;20028;-80
2022/05/07 07:02:44;;;;;;;22.38;16.35;;;;;;;13.86;66.39;99157.81;5049372;28;20560;-80
2022/05/07 07:05:10;;;;;;;24.30;16.83;;;;;;;13.96;66.20;99154.88;5052830;28;20052;-80
2022/05/07 07:07:35;;;;;;;24.95;17.27;;;;;;;14.06;66.06;99160.22;5050221;28;20025;-79
2022/05/07 07:10:00;;;;;;;31.27;22.27;;;;;;;14.12;65.87;99163.72;5052913;28;20462;-79
2022/05/07 07:12:26;;;;;;;32.85;21.73;;;;;;;14.12;65.80;99160.94;5050350;28;20029;-79
2022/05/07 07:14:51;;;;;;;35.88;23.10;;;;;;;14.13;65.78;99162.59;5048679;28;20466;-80
2022/05/07 07:17:17;;;;;;;29.88;21.90;;;;;;;14.14;65.09;99162.31;5049985;28;20414;-78
2022/05/07 07:19:46;;;;;;;31.08;24.10;;;;;;;14.12;65.43;99166.47;5048253;28;20017;-80
2022/05/07 07:22:12;;;;;;;35.72;22.60;;;;;;;14.15;65.12;99160.34;5049836;28;20052;-80
2022/05/07 07:24:38;;;;;;;32.35;23.27;;;;;;;14.16;65.01;99167.50;5050971;28;20045;-79
2022/05/07 07:27:04;;;;;;;33.53;22.13;;;;;;;14.18;65.36;99165.25;5051153;28;20055;-79
2022/05/07 07:29:30;;;;;;;41.45;25.60;;;;;;;14.23;65.26;99172.66;5054174;28;20094;-80
2022/05/07 07:31:55;;;;;;;41.10;23.75;;;;;;;14.27;65.25;99168.97;5050510;28;20024;-80
2022/05/07 07:34:21;;;;;;;36.08;21.05;;;;;;;14.34;65.23;99167.75;5050134;28;20035;-80
2022/05/07 07:36:50;;;;;;;26.05;17.50;;;;;;;14.42;65.00;99162.34;5050604;28;20025;-79
2022/05/07 07:39:16;;;;;;;28.60;18.60;;;;;;;14.49;64.52;99167.44;5049171;28;20029;-79
2022/05/07 07:41:43;;;;;;;30.55;19.17;;;;;;;14.55;64.78;99169.00;5052163;28;20108;-80
2022/05/07 07:44:09;;;;;;;27.42;18.45;;;;;;;14.67;64.66;99168.47;5053646;28;20021;-79
2022/05/07 07:49:20;;;;;;;30.00;18.55;;;;;;;14.98;64.51;99167.91;5055365;28;20040;-79
2022/05/07 07:51:45;;;;;;;31.25;18.10;;;;;;;15.11;64.26;99171.78;5054180;28;20056;-79
2022/05/07 07:54:11;;;;;;;26.77;18.35;;;;;;;15.25;63.82;99170.97;5052790;28;20025;-80
2022/05/07 07:56:36;;;;;;;28.63;17.65;;;;;;;15.40;63.64;99167.03;5046119;28;20041;-80
2022/05/07 07:59:02;;;;;;;28.00;17.15;;;;;;;15.57;63.83;99167.16;5052211;28;20025;-78
2022/05/07 08:01:28;;;;;;;25.63;17.45;;;;;;;15.75;63.42;99170.09;5047500;28;20029;-79
2022/05/07 08:03:53;;;;;;;26.75;16.85;;;;;;;15.91;62.78;99162.25;5050627;28;20044;-79
2022/05/07 08:06:18;;;;;;;26.15;17.00;;;;;;;16.05;62.69;99170.47;5052651;28;20044;-79
2022/05/07 08:11:40;;;;;;;20.83;14.48;;;;;;;16.39;61.98;99173.78;5050882;28;20032;-79
2022/05/07 08:14:09;;;;;;;21.10;13.63;;;;;;;16.54;61.83;99167.81;5050670;28;20459;-79
2022/05/07 08:16:35;;;;;;;21.33;14.02;;;;;;;16.61;60.98;99172.91;5052189;28;20025;-78
2022/05/07 08:19:03;;;;;;;21.20;14.50;;;;;;;16.66;60.47;99173.59;5052076;28;20112;-79
2022/05/07 08:21:29;;;;;;;22.73;14.10;;;;;;;16.73;60.29;99178.66;5049860;28;20052;-78
2022/05/07 08:23:55;;;;;;;24.33;14.43;;;;;;;16.82;60.20;99170.38;5051497;28;20469;-78
2022/05/07 08:26:21;;;;;;;20.10;13.57;;;;;;;16.89;59.85;99178.22;5048480;28;20028;-80
2022/05/07 08:28:47;;;;;;;20.10;13.25;;;;;;;16.95;59.69;99177.75;5052674;28;20463;-78
2022/05/07 08:31:13;;;;;;;18.45;12.73;;;;;;;17.04;58.92;99179.75;5054260;28;20020;-78
2022/05/07 08:33:43;;;;;;;21.27;13.38;;;;;;;17.12;58.57;99184.53;5054281;28;20041;-78
2022/05/07 08:36:10;;;;;;;21.90;13.07;;;;;;;17.20;58.14;99180.94;5053858;28;20043;-78
2022/05/07 08:38:36;;;;;;;19.88;12.40;;;;;;;17.29;57.71;99186.50;5052925;28;20021;-79
2022/05/07 08:41:01;;;;;;;20.02;12.90;;;;;;;17.33;57.49;99187.50;5053484;28;20025;-78
2022/05/07 08:43:36;;;;;;;20.92;13.23;;;;;;;17.37;57.32;99185.72;5051411;28;20029;-78
2022/05/07 08:46:07;;;;;;;21.65;13.85;;;;;;;17.37;57.19;99190.44;5053777;28;20064;-82
2022/05/07 08:48:33;;;;;;;20.90;12.75;;;;;;;17.35;56.47;99184.38;5057230;28;20674;-82
2022/05/07 08:51:00;;;;;;;20.42;12.55;;;;;;;17.34;56.38;99191.06;5053438;28;20033;-82
2022/05/07 08:53:25;;;;;;;20.17;13.02;;;;;;;17.37;56.04;99187.66;5053890;28;20033;-81
2022/05/07 08:55:54;;;;;;;21.88;12.85;;;;;;;17.43;56.01;99191.09;5054197;28;20475;-80
2022/05/07 08:58:20;;;;;;;19.33;12.20;;;;;;;17.44;55.74;99189.97;5053812;28;20078;-85
2022/05/07 09:00:45;;;;;;;21.00;12.70;;;;;;;17.48;55.51;99194.53;5053285;28;20078;-84
2022/05/07 09:03:15;;;;;;;22.25;12.88;;;;;;;17.44;55.22;99199.09;5053006;28;20025;-85
2022/05/07 09:05:41;;;;;;;20.42;12.27;;;;;;;17.42;55.05;99195.81;5054544;28;20108;-84
2022/05/07 09:08:07;;;;;;;22.92;13.73;;;;;;;17.41;54.58;99197.78;5054658;28;20445;-84
2022/05/07 09:10:35;;;;;;;24.95;15.75;;;;;;;17.38;53.98;99198.44;5053103;28;20025;-85
2022/05/07 09:13:13;;;;;;;24.23;16.70;;;;;;;17.34;54.03;99203.00;5051821;28;20036;-84
2022/05/07 09:16:08;;;;;;;25.13;16.50;;;;;;;17.38;54.58;99192.06;5051867;28;20059;-84
2022/05/07 09:18:34;;;;;;;21.80;15.57;;;;;;;17.40;54.31;99200.88;5044401;28;20072;-84
2022/05/07 09:21:23;;;;;;;22.90;14.70;;;;;;;17.43;54.01;99199.41;5052214;28;20121;-85
2022/05/07 09:23:58;;;;;;;20.50;11.90;;;;;;;17.43;53.51;99203.00;5053166;28;20035;-85
2022/05/07 09:26:25;;;;;;;24.65;13.68;;;;;;;17.46;53.00;99202.34;5054016;28;20074;-85
2022/05/07 09:28:50;;;;;;;23.95;14.07;;;;;;;17.48;53.06;99213.94;5052144;28;20037;-85
2022/05/07 09:31:27;;;;;;;21.40;13.82;;;;;;;17.50;53.27;99203.34;5051101;28;20033;-85
2022/05/07 09:35:47;;;;;;;18.92;12.82;;;;;;;17.53;53.19;99201.88;5052112;28;20033;-85
2022/05/07 09:36:42;;;;;;;24.75;13.50;;;;;;;17.52;53.28;99203.84;5053461;28;20036;-84
2022/05/07 09:39:10;;;;;;;21.88;13.32;;;;;;;17.52;53.08;99203.03;5051876;28;20395;-85
2022/05/07 09:41:36;;;;;;;21.17;12.35;;;;;;;17.52;52.88;99198.28;5055272;28;20035;-84
2022/05/07 09:44:02;;;;;;;21.20;12.20;;;;;;;17.51;52.27;99193.06;5053090;28;20103;-84
2022/05/07 09:46:30;;;;;;;20.20;11.80;;;;;;;17.48;52.22;99191.75;5053940;28;20125;-84
2022/05/07 09:48:59;;;;;;;19.52;11.88;;;;;;;17.49;52.01;99198.13;5052049;28;20079;-84
2022/05/07 09:51:24;;;;;;;21.55;13.23;;;;;;;17.51;51.68;99187.53;5050284;28;20029;-84
2022/05/07 09:59:18;;;;;;;23.45;13.57;;;;;;;17.65;50.99;99184.59;5050461;28;20110;-84
2022/05/07 10:02:19;;;;;;;25.30;14.55;;;;;;;17.66;51.30;99178.72;5041871;28;20029;-84
2022/05/07 10:05:18;;;;;;;26.63;15.23;;;;;;;17.70;50.47;99187.22;5052483;28;20045;-84
2022/05/07 10:08:12;;;;;;;22.20;13.45;;;;;;;17.81;50.39;99182.94;5052896;28;20029;-83
2022/05/07 10:10:39;;;;;;;21.50;13.52;;;;;;;17.85;50.03;99186.69;5051758;28;20055;-84
2022/05/07 10:13:05;;;;;;;23.42;13.98;;;;;;;17.94;50.24;99183.91;5050724;28;20044;-84
2022/05/07 10:15:31;;;;;;;22.33;12.95;;;;;;;18.00;50.15;99179.88;5049770;28;20029;-83
2022/05/07 10:17:58;;;;;;;20.92;13.60;;;;;;;18.05;49.99;99181.66;5051090;28;20028;-83
2022/05/07 10:20:24;;;;;;;21.23;13.63;;;;;;;18.17;50.02;99177.38;5052841;28;20032;-83
2022/05/07 10:22:56;;;;;;;21.52;14.05;;;;;;;18.29;49.73;99177.53;5051117;28;20017;-82
2022/05/07 10:25:22;;;;;;;22.52;13.32;;;;;;;18.39;49.69;99168.84;5048548;28;20029;-83
2022/05/07 10:27:49;;;;;;;20.77;13.48;;;;;;;18.55;49.85;99169.13;5051691;28;20036;-82
2022/05/07 10:30:16;;;;;;;20.85;14.50;;;;;;;18.62;49.89;99168.59;5052044;28;20029;-83
2022/05/07 10:32:55;;;;;;;25.48;14.25;;;;;;;18.68;49.51;99166.47;5051424;28;20037;-83
2022/05/07 10:35:44;;;;;;;23.52;13.70;;;;;;;18.79;49.99;99159.38;5051921;28;20052;-83
2022/05/07 10:38:33;;;;;;;24.88;13.57;;;;;;;18.82;48.80;99163.47;5051638;28;20102;-83
2022/05/07 10:41:01;;;;;;;24.27;14.57;;;;;;;18.87;47.76;99166.06;5049324;28;20040;-83
2022/05/07 10:43:40;;;;;;;25.60;15.75;;;;;;;18.89;47.30;99166.53;5050971;28;20108;-82
2022/05/07 10:46:07;;;;;;;22.30;14.65;;;;;;;18.98;47.32;99160.94;5050568;28;20041;-82
2022/05/07 10:48:46;;;;;;;25.92;16.85;;;;;;;19.03;46.86;99156.00;5051141;28;20029;-84
2022/05/07 10:51:21;;;;;;;25.23;16.35;;;;;;;19.23;46.66;99158.34;5053786;28;20063;-83
2022/05/07 10:53:47;;;;;;;21.38;13.45;;;;;;;19.40;46.46;99163.78;5051068;28;20693;-83
2022/05/07 10:56:19;;;;;;;22.33;14.35;;;;;;;19.53;45.72;99152.75;5047839;28;20045;-83
2022/05/07 10:58:49;;;;;;;22.52;14.57;;;;;;;19.62;45.92;99157.06;5051501;28;20036;-83
2022/05/07 11:01:18;;;;;;;20.42;12.32;;;;;;;;;;5050964;28;20025;-84
2022/05/07 11:03:45;;;;;;;17.55;11.43;;;;;;;19.81;45.74;99154.97;5051182;28;20029;-83
2022/05/07 11:06:11;;;;;;;18.45;11.07;;;;;;;19.83;45.80;99153.44;5051695;28;20017;-76
2022/05/07 11:08:50;;;;;;;18.40;11.98;;;;;;;19.87;45.66;99148.84;5051229;28;20029;-84
2022/05/07 11:11:17;;;;;;;18.97;13.10;;;;;;;19.91;45.61;99147.03;5050528;28;20558;-84
2022/05/07 11:13:50;;;;;;;16.90;11.30;;;;;;;19.94;45.14;99142.75;5051134;28;20291;-85
2022/05/07 11:16:17;;;;;;;20.35;11.43;;;;;;;19.98;45.33;99143.69;5050989;28;20111;-83
2022/05/07 11:19:02;;;;;;;18.92;11.57;;;;;;;19.99;45.09;99138.94;5049509;28;20568;-85
2022/05/07 11:21:28;;;;;;;20.65;11.55;;;;;;;20.01;44.38;99129.06;5050861;28;20052;-85
2022/05/07 11:23:55;;;;;;;14.60;10.50;;;;;;;20.04;43.97;99124.81;5050929;28;20037;-85
2022/05/07 11:26:20;;;;;;;18.88;11.82;;;;;;;20.03;44.13;99123.97;5050970;28;20100;-84
2022/05/07 11:28:47;;;;;;;16.00;11.23;;;;;;;20.05;43.99;99129.22;5050958;28;20113;-84
2022/05/07 11:31:27;;;;;;;17.48;11.55;;;;;;;20.05;44.12;99118.06;5050332;28;20481;-84
2022/05/07 11:34:11;;;;;;;18.00;12.07;;;;;;;20.06;44.22;99125.28;5049709;28;20047;-85
2022/05/07 11:36:38;;;;;;;18.48;10.95;;;;;;;20.08;43.69;99123.75;5050655;28;20477;-84
2022/05/07 11:39:08;;;;;;;17.95;11.18;;;;;;;20.06;44.33;99123.28;5048428;28;20052;-84
2022/05/07 11:41:34;;;;;;;18.88;11.38;;;;;;;20.09;43.96;99116.22;5047221;28;20021;-81
2022/05/07 11:46:51;;;;;;;15.27;9.45;;;;;;;20.14;43.74;99107.66;5050026;28;20075;-83
2022/05/07 11:49:33;;;;;;;17.65;10.23;;;;;;;20.16;43.72;99108.13;5050484;28;20029;-80
2022/05/07 11:52:10;;;;;;;13.48;8.10;;;;;;;20.26;42.69;99104.09;5048910;28;20028;-81